sensor_id;sensor_type;location;lat;lon;timestamp;P1;durP1;ratioP1;P2;durP2;ratioP2
35636;SDS011;21758;43.542;1.462;2022-07-22T00:01:32;9.68;;;4.28;;
35636;SDS011;21758;43.542;1.462;2022-07-22T00:03:58;6.22;;;3.97;;
35636;SDS011;21758;43.542;1.462;2022-07-22T00:06:25;8.15;;;3.60;;
35636;SDS011;21758;43.542;1.462;2022-07-22T00:08:50;12.95;;;4.05;;
35636;SDS011;21758;43.542;1.462;2022-07-22T00:11:16;10.88;;;3.72;;
35636;SDS011;21758;43.542;1.462;2022-07-22T00:13:41;7.65;;;3.70;;
35636;SDS011;21758;43.542;1.462;2022-07-22T00:16:07;10.02;;;4.32;;
35636;SDS011;21758;43.542;1.462;2022-07-22T00:18:33;10.73;;;3.53;;
35636;SDS011;21758;43.542;1.462;2022-07-22T00:20:59;5.60;;;3.42;;
35636;SDS011;21758;43.542;1.462;2022-07-22T00:23:24;8.35;;;4.10;;
35636;SDS011;21758;43.542;1.462;2022-07-22T00:25:50;8.15;;;4.25;;
35636;SDS011;21758;43.542;1.462;2022-07-22T00:28:15;7.45;;;3.65;;
35636;SDS011;21758;43.542;1.462;2022-07-22T00:30:41;11.43;;;4.15;;
35636;SDS011;21758;43.542;1.462;2022-07-22T00:33:07;8.60;;;3.83;;
35636;SDS011;21758;43.542;1.462;2022-07-22T00:35:33;7.60;;;4.22;;
35636;SDS011;21758;43.542;1.462;2022-07-22T00:37:59;7.43;;;3.97;;
35636;SDS011;21758;43.542;1.462;2022-07-22T00:40:24;9.32;;;4.00;;
35636;SDS011;21758;43.542;1.462;2022-07-22T00:42:50;7.35;;;3.83;;
35636;SDS011;21758;43.542;1.462;2022-07-22T00:45:17;6.65;;;3.65;;
35636;SDS011;21758;43.542;1.462;2022-07-22T00:47:43;9.10;;;4.10;;
35636;SDS011;21758;43.542;1.462;2022-07-22T00:50:09;10.00;;;4.13;;
35636;SDS011;21758;43.542;1.462;2022-07-22T00:52:35;9.07;;;3.78;;
35636;SDS011;21758;43.542;1.462;2022-07-22T00:55:02;6.95;;;3.92;;
35636;SDS011;21758;43.542;1.462;2022-07-22T00:57:29;10.80;;;4.65;;
35636;SDS011;21758;43.542;1.462;2022-07-22T00:59:55;7.07;;;4.10;;
35636;SDS011;21758;43.542;1.462;2022-07-22T01:02:21;6.57;;;4.20;;
35636;SDS011;21758;43.542;1.462;2022-07-22T01:04:46;12.25;;;4.05;;
35636;SDS011;21758;43.542;1.462;2022-07-22T01:07:12;10.00;;;4.35;;
35636;SDS011;21758;43.542;1.462;2022-07-22T01:09:41;6.32;;;3.85;;
35636;SDS011;21758;43.542;1.462;2022-07-22T01:12:08;8.23;;;4.05;;
35636;SDS011;21758;43.542;1.462;2022-07-22T01:14:34;9.15;;;4.30;;
35636;SDS011;21758;43.542;1.462;2022-07-22T01:17:00;8.00;;;4.13;;
35636;SDS011;21758;43.542;1.462;2022-07-22T01:19:25;10.00;;;4.45;;
35636;SDS011;21758;43.542;1.462;2022-07-22T01:21:51;10.55;;;4.43;;
35636;SDS011;21758;43.542;1.462;2022-07-22T01:24:17;7.60;;;3.90;;
35636;SDS011;21758;43.542;1.462;2022-07-22T01:26:42;9.32;;;4.18;;
35636;SDS011;21758;43.542;1.462;2022-07-22T01:29:08;8.05;;;4.00;;
35636;SDS011;21758;43.542;1.462;2022-07-22T01:31:34;8.32;;;4.65;;
35636;SDS011;21758;43.542;1.462;2022-07-22T01:33:59;10.07;;;3.92;;
35636;SDS011;21758;43.542;1.462;2022-07-22T01:36:25;10.43;;;4.13;;
35636;SDS011;21758;43.542;1.462;2022-07-22T01:38:51;6.65;;;4.32;;
35636;SDS011;21758;43.542;1.462;2022-07-22T01:41:17;11.38;;;4.70;;
35636;SDS011;21758;43.542;1.462;2022-07-22T01:43:42;7.53;;;4.05;;
35636;SDS011;21758;43.542;1.462;2022-07-22T01:46:08;7.95;;;3.70;;
35636;SDS011;21758;43.542;1.462;2022-07-22T01:48:34;8.68;;;4.38;;
35636;SDS011;21758;43.542;1.462;2022-07-22T01:51:00;7.45;;;4.40;;
35636;SDS011;21758;43.542;1.462;2022-07-22T01:53:25;12.63;;;4.32;;
35636;SDS011;21758;43.542;1.462;2022-07-22T01:55:51;6.90;;;4.00;;
35636;SDS011;21758;43.542;1.462;2022-07-22T01:58:17;6.57;;;3.78;;
35636;SDS011;21758;43.542;1.462;2022-07-22T02:00:43;9.48;;;4.30;;
35636;SDS011;21758;43.542;1.462;2022-07-22T02:03:09;6.38;;;3.70;;
35636;SDS011;21758;43.542;1.462;2022-07-22T02:05:36;7.07;;;3.92;;
35636;SDS011;21758;43.542;1.462;2022-07-22T02:08:03;8.25;;;3.95;;
35636;SDS011;21758;43.542;1.462;2022-07-22T02:10:30;6.68;;;3.85;;
35636;SDS011;21758;43.542;1.462;2022-07-22T02:12:56;5.90;;;3.40;;
35636;SDS011;21758;43.542;1.462;2022-07-22T02:15:24;9.05;;;3.83;;
35636;SDS011;21758;43.542;1.462;2022-07-22T02:17:50;7.10;;;3.92;;
35636;SDS011;21758;43.542;1.462;2022-07-22T02:20:16;6.88;;;3.22;;
35636;SDS011;21758;43.542;1.462;2022-07-22T02:22:42;6.18;;;3.72;;
35636;SDS011;21758;43.542;1.462;2022-07-22T02:25:07;7.63;;;4.22;;
35636;SDS011;21758;43.542;1.462;2022-07-22T02:27:33;7.53;;;3.95;;
35636;SDS011;21758;43.542;1.462;2022-07-22T02:29:59;12.32;;;4.45;;
35636;SDS011;21758;43.542;1.462;2022-07-22T02:32:25;13.73;;;4.05;;
35636;SDS011;21758;43.542;1.462;2022-07-22T02:34:51;13.48;;;4.70;;
35636;SDS011;21758;43.542;1.462;2022-07-22T02:37:16;6.55;;;3.92;;
35636;SDS011;21758;43.542;1.462;2022-07-22T02:39:42;11.23;;;4.55;;
35636;SDS011;21758;43.542;1.462;2022-07-22T02:42:08;6.95;;;4.32;;
35636;SDS011;21758;43.542;1.462;2022-07-22T02:44:33;6.82;;;3.47;;
35636;SDS011;21758;43.542;1.462;2022-07-22T02:46:59;17.90;;;4.90;;
35636;SDS011;21758;43.542;1.462;2022-07-22T02:49:25;9.93;;;3.80;;
35636;SDS011;21758;43.542;1.462;2022-07-22T02:51:50;9.20;;;4.05;;
35636;SDS011;21758;43.542;1.462;2022-07-22T02:54:16;9.95;;;4.50;;
35636;SDS011;21758;43.542;1.462;2022-07-22T02:56:42;8.35;;;4.68;;
35636;SDS011;21758;43.542;1.462;2022-07-22T02:59:08;7.75;;;4.00;;
35636;SDS011;21758;43.542;1.462;2022-07-22T03:01:34;10.73;;;4.35;;
35636;SDS011;21758;43.542;1.462;2022-07-22T03:03:59;8.38;;;4.03;;
35636;SDS011;21758;43.542;1.462;2022-07-22T03:06:25;10.00;;;4.72;;
35636;SDS011;21758;43.542;1.462;2022-07-22T03:08:51;9.82;;;4.55;;
35636;SDS011;21758;43.542;1.462;2022-07-22T03:11:16;8.38;;;4.43;;
35636;SDS011;21758;43.542;1.462;2022-07-22T03:13:42;15.38;;;5.47;;
35636;SDS011;21758;43.542;1.462;2022-07-22T03:16:07;7.80;;;4.47;;
35636;SDS011;21758;43.542;1.462;2022-07-22T03:18:34;7.82;;;4.15;;
35636;SDS011;21758;43.542;1.462;2022-07-22T03:20:59;9.80;;;4.60;;
35636;SDS011;21758;43.542;1.462;2022-07-22T03:23:25;9.80;;;4.97;;
35636;SDS011;21758;43.542;1.462;2022-07-22T03:25:51;8.07;;;4.15;;
35636;SDS011;21758;43.542;1.462;2022-07-22T03:28:16;10.52;;;4.70;;
35636;SDS011;21758;43.542;1.462;2022-07-22T03:30:42;7.28;;;4.15;;
35636;SDS011;21758;43.542;1.462;2022-07-22T03:33:08;9.73;;;4.75;;
35636;SDS011;21758;43.542;1.462;2022-07-22T03:35:33;10.30;;;4.35;;
35636;SDS011;21758;43.542;1.462;2022-07-22T03:37:59;12.70;;;4.70;;
35636;SDS011;21758;43.542;1.462;2022-07-22T03:40:25;13.60;;;4.75;;
35636;SDS011;21758;43.542;1.462;2022-07-22T03:42:50;8.35;;;4.30;;
35636;SDS011;21758;43.542;1.462;2022-07-22T03:45:16;9.38;;;4.85;;
35636;SDS011;21758;43.542;1.462;2022-07-22T03:47:42;12.05;;;4.47;;
35636;SDS011;21758;43.542;1.462;2022-07-22T03:50:08;10.15;;;5.03;;
35636;SDS011;21758;43.542;1.462;2022-07-22T03:52:33;11.50;;;4.57;;
35636;SDS011;21758;43.542;1.462;2022-07-22T03:54:59;12.25;;;4.32;;
35636;SDS011;21758;43.542;1.462;2022-07-22T03:57:25;12.70;;;4.85;;
35636;SDS011;21758;43.542;1.462;2022-07-22T03:59:52;12.25;;;4.95;;
35636;SDS011;21758;43.542;1.462;2022-07-22T04:02:17;12.98;;;4.93;;
35636;SDS011;21758;43.542;1.462;2022-07-22T04:04:44;12.18;;;5.18;;
35636;SDS011;21758;43.542;1.462;2022-07-22T04:07:10;7.28;;;4.78;;
35636;SDS011;21758;43.542;1.462;2022-07-22T04:09:36;8.80;;;4.50;;
35636;SDS011;21758;43.542;1.462;2022-07-22T04:12:01;13.18;;;4.88;;
35636;SDS011;21758;43.542;1.462;2022-07-22T04:14:27;10.00;;;4.63;;
35636;SDS011;21758;43.542;1.462;2022-07-22T04:16:53;7.88;;;4.72;;
35636;SDS011;21758;43.542;1.462;2022-07-22T04:19:18;12.27;;;4.63;;
35636;SDS011;21758;43.542;1.462;2022-07-22T04:21:44;11.35;;;5.15;;
35636;SDS011;21758;43.542;1.462;2022-07-22T04:24:10;12.38;;;5.07;;
35636;SDS011;21758;43.542;1.462;2022-07-22T04:26:36;14.05;;;5.78;;
35636;SDS011;21758;43.542;1.462;2022-07-22T04:29:03;10.90;;;4.97;;
35636;SDS011;21758;43.542;1.462;2022-07-22T04:31:29;13.60;;;5.00;;
35636;SDS011;21758;43.542;1.462;2022-07-22T04:33:55;11.82;;;5.43;;
35636;SDS011;21758;43.542;1.462;2022-07-22T04:36:21;7.57;;;4.47;;
35636;SDS011;21758;43.542;1.462;2022-07-22T04:38:47;8.90;;;4.22;;
35636;SDS011;21758;43.542;1.462;2022-07-22T04:41:13;15.20;;;4.68;;
35636;SDS011;21758;43.542;1.462;2022-07-22T04:43:39;10.70;;;4.78;;
35636;SDS011;21758;43.542;1.462;2022-07-22T04:46:04;8.60;;;4.85;;
35636;SDS011;21758;43.542;1.462;2022-07-22T04:48:30;11.10;;;4.85;;
35636;SDS011;21758;43.542;1.462;2022-07-22T04:50:59;9.90;;;5.03;;
35636;SDS011;21758;43.542;1.462;2022-07-22T04:53:25;10.63;;;5.03;;
35636;SDS011;21758;43.542;1.462;2022-07-22T04:55:51;16.05;;;4.88;;
35636;SDS011;21758;43.542;1.462;2022-07-22T04:58:17;16.63;;;5.35;;
35636;SDS011;21758;43.542;1.462;2022-07-22T05:00:43;8.88;;;4.78;;
35636;SDS011;21758;43.542;1.462;2022-07-22T05:03:08;13.00;;;5.55;;
35636;SDS011;21758;43.542;1.462;2022-07-22T05:05:34;12.15;;;5.50;;
35636;SDS011;21758;43.542;1.462;2022-07-22T05:08:00;12.73;;;4.75;;
35636;SDS011;21758;43.542;1.462;2022-07-22T05:10:25;16.30;;;4.93;;
35636;SDS011;21758;43.542;1.462;2022-07-22T05:12:52;10.15;;;5.05;;
35636;SDS011;21758;43.542;1.462;2022-07-22T05:15:18;8.43;;;5.05;;
35636;SDS011;21758;43.542;1.462;2022-07-22T05:17:44;13.18;;;5.00;;
35636;SDS011;21758;43.542;1.462;2022-07-22T05:20:09;22.27;;;5.47;;
35636;SDS011;21758;43.542;1.462;2022-07-22T05:22:36;12.40;;;5.72;;
35636;SDS011;21758;43.542;1.462;2022-07-22T05:25:01;14.57;;;4.97;;
35636;SDS011;21758;43.542;1.462;2022-07-22T05:27:27;10.25;;;5.00;;
35636;SDS011;21758;43.542;1.462;2022-07-22T05:29:53;16.15;;;5.50;;
35636;SDS011;21758;43.542;1.462;2022-07-22T05:32:18;10.68;;;4.82;;
35636;SDS011;21758;43.542;1.462;2022-07-22T05:34:44;10.05;;;5.05;;
35636;SDS011;21758;43.542;1.462;2022-07-22T05:37:10;14.25;;;5.38;;
35636;SDS011;21758;43.542;1.462;2022-07-22T05:39:35;14.70;;;5.57;;
35636;SDS011;21758;43.542;1.462;2022-07-22T05:42:01;12.00;;;5.43;;
35636;SDS011;21758;43.542;1.462;2022-07-22T05:44:27;15.15;;;4.43;;
35636;SDS011;21758;43.542;1.462;2022-07-22T05:46:52;16.55;;;5.32;;
35636;SDS011;21758;43.542;1.462;2022-07-22T05:49:18;12.35;;;5.35;;
35636;SDS011;21758;43.542;1.462;2022-07-22T05:51:44;11.20;;;5.00;;
35636;SDS011;21758;43.542;1.462;2022-07-22T05:54:10;18.85;;;5.97;;
35636;SDS011;21758;43.542;1.462;2022-07-22T05:56:36;10.95;;;4.90;;
35636;SDS011;21758;43.542;1.462;2022-07-22T05:59:02;10.82;;;5.50;;
35636;SDS011;21758;43.542;1.462;2022-07-22T06:01:27;12.55;;;5.30;;
35636;SDS011;21758;43.542;1.462;2022-07-22T06:03:53;22.55;;;7.07;;
35636;SDS011;21758;43.542;1.462;2022-07-22T06:06:19;20.63;;;5.53;;
35636;SDS011;21758;43.542;1.462;2022-07-22T06:08:44;18.17;;;6.00;;
35636;SDS011;21758;43.542;1.462;2022-07-22T06:11:10;15.13;;;5.07;;
35636;SDS011;21758;43.542;1.462;2022-07-22T06:13:36;12.88;;;5.50;;
35636;SDS011;21758;43.542;1.462;2022-07-22T06:16:03;19.73;;;6.10;;
35636;SDS011;21758;43.542;1.462;2022-07-22T06:18:29;12.10;;;5.90;;
35636;SDS011;21758;43.542;1.462;2022-07-22T06:20:54;14.18;;;6.03;;
35636;SDS011;21758;43.542;1.462;2022-07-22T06:23:21;13.85;;;6.05;;
35636;SDS011;21758;43.542;1.462;2022-07-22T06:25:49;17.52;;;5.78;;
35636;SDS011;21758;43.542;1.462;2022-07-22T06:28:14;14.43;;;5.45;;
35636;SDS011;21758;43.542;1.462;2022-07-22T06:30:40;18.00;;;6.47;;
35636;SDS011;21758;43.542;1.462;2022-07-22T06:33:06;16.55;;;6.28;;
35636;SDS011;21758;43.542;1.462;2022-07-22T06:35:31;11.00;;;5.45;;
35636;SDS011;21758;43.542;1.462;2022-07-22T06:37:57;13.48;;;6.15;;
35636;SDS011;21758;43.542;1.462;2022-07-22T06:40:23;13.95;;;5.55;;
35636;SDS011;21758;43.542;1.462;2022-07-22T06:42:48;13.00;;;5.57;;
35636;SDS011;21758;43.542;1.462;2022-07-22T06:45:14;21.20;;;6.30;;
35636;SDS011;21758;43.542;1.462;2022-07-22T06:47:40;17.05;;;6.90;;
35636;SDS011;21758;43.542;1.462;2022-07-22T06:50:06;15.63;;;6.32;;
35636;SDS011;21758;43.542;1.462;2022-07-22T06:52:33;21.17;;;6.40;;
35636;SDS011;21758;43.542;1.462;2022-07-22T06:54:59;13.43;;;5.63;;
35636;SDS011;21758;43.542;1.462;2022-07-22T06:57:24;19.20;;;6.25;;
35636;SDS011;21758;43.542;1.462;2022-07-22T06:59:50;16.67;;;6.45;;
35636;SDS011;21758;43.542;1.462;2022-07-22T07:02:16;14.63;;;5.97;;
35636;SDS011;21758;43.542;1.462;2022-07-22T07:04:42;22.13;;;7.00;;
35636;SDS011;21758;43.542;1.462;2022-07-22T07:07:07;18.83;;;6.45;;
35636;SDS011;21758;43.542;1.462;2022-07-22T07:09:34;14.52;;;5.63;;
35636;SDS011;21758;43.542;1.462;2022-07-22T07:12:00;16.65;;;6.30;;
35636;SDS011;21758;43.542;1.462;2022-07-22T07:14:26;19.63;;;5.93;;
35636;SDS011;21758;43.542;1.462;2022-07-22T07:16:51;20.60;;;5.95;;
35636;SDS011;21758;43.542;1.462;2022-07-22T07:19:17;17.63;;;6.40;;
35636;SDS011;21758;43.542;1.462;2022-07-22T07:21:44;16.38;;;6.72;;
35636;SDS011;21758;43.542;1.462;2022-07-22T07:24:10;14.85;;;5.93;;
35636;SDS011;21758;43.542;1.462;2022-07-22T07:26:36;19.65;;;5.95;;
35636;SDS011;21758;43.542;1.462;2022-07-22T07:29:02;17.30;;;5.72;;
35636;SDS011;21758;43.542;1.462;2022-07-22T07:31:27;25.70;;;6.25;;
35636;SDS011;21758;43.542;1.462;2022-07-22T07:33:53;17.23;;;5.93;;
35636;SDS011;21758;43.542;1.462;2022-07-22T07:36:19;18.77;;;6.75;;
35636;SDS011;21758;43.542;1.462;2022-07-22T07:38:45;19.35;;;6.50;;
35636;SDS011;21758;43.542;1.462;2022-07-22T07:41:11;13.40;;;6.55;;
35636;SDS011;21758;43.542;1.462;2022-07-22T07:43:36;23.63;;;6.72;;
35636;SDS011;21758;43.542;1.462;2022-07-22T07:46:02;12.65;;;5.40;;
35636;SDS011;21758;43.542;1.462;2022-07-22T07:48:28;17.42;;;6.03;;
35636;SDS011;21758;43.542;1.462;2022-07-22T07:50:53;15.13;;;6.00;;
35636;SDS011;21758;43.542;1.462;2022-07-22T07:53:19;24.40;;;6.55;;
35636;SDS011;21758;43.542;1.462;2022-07-22T07:55:45;20.50;;;5.95;;
35636;SDS011;21758;43.542;1.462;2022-07-22T07:58:11;19.60;;;6.40;;
35636;SDS011;21758;43.542;1.462;2022-07-22T08:00:36;17.45;;;6.55;;
35636;SDS011;21758;43.542;1.462;2022-07-22T08:03:04;13.93;;;5.60;;
35636;SDS011;21758;43.542;1.462;2022-07-22T08:05:30;17.92;;;5.68;;
35636;SDS011;21758;43.542;1.462;2022-07-22T08:07:56;17.88;;;5.90;;
35636;SDS011;21758;43.542;1.462;2022-07-22T08:10:22;19.05;;;5.88;;
35636;SDS011;21758;43.542;1.462;2022-07-22T08:12:48;13.82;;;5.93;;
35636;SDS011;21758;43.542;1.462;2022-07-22T08:15:16;19.05;;;5.85;;
35636;SDS011;21758;43.542;1.462;2022-07-22T08:17:41;15.90;;;6.00;;
35636;SDS011;21758;43.542;1.462;2022-07-22T08:20:08;17.02;;;6.18;;
35636;SDS011;21758;43.542;1.462;2022-07-22T08:22:34;15.32;;;5.45;;
35636;SDS011;21758;43.542;1.462;2022-07-22T08:25:00;15.50;;;4.95;;
35636;SDS011;21758;43.542;1.462;2022-07-22T08:27:25;16.73;;;5.72;;
35636;SDS011;21758;43.542;1.462;2022-07-22T08:29:51;12.38;;;5.85;;
35636;SDS011;21758;43.542;1.462;2022-07-22T08:32:17;18.95;;;6.00;;
35636;SDS011;21758;43.542;1.462;2022-07-22T08:34:43;14.88;;;5.80;;
35636;SDS011;21758;43.542;1.462;2022-07-22T08:37:09;17.52;;;6.05;;
35636;SDS011;21758;43.542;1.462;2022-07-22T08:39:35;14.13;;;4.90;;
35636;SDS011;21758;43.542;1.462;2022-07-22T08:42:01;13.90;;;5.60;;
35636;SDS011;21758;43.542;1.462;2022-07-22T08:44:30;12.93;;;5.72;;
35636;SDS011;21758;43.542;1.462;2022-07-22T08:46:57;11.70;;;5.22;;
35636;SDS011;21758;43.542;1.462;2022-07-22T08:49:24;14.98;;;6.18;;
35636;SDS011;21758;43.542;1.462;2022-07-22T08:51:50;12.55;;;5.20;;
35636;SDS011;21758;43.542;1.462;2022-07-22T08:54:15;18.95;;;5.97;;
35636;SDS011;21758;43.542;1.462;2022-07-22T08:56:41;15.05;;;6.15;;
35636;SDS011;21758;43.542;1.462;2022-07-22T08:59:15;15.93;;;5.53;;
35636;SDS011;21758;43.542;1.462;2022-07-22T09:07:34;14.40;;;5.35;;
35636;SDS011;21758;43.542;1.462;2022-07-22T09:10:02;12.75;;;5.10;;
35636;SDS011;21758;43.542;1.462;2022-07-22T09:12:29;10.10;;;5.15;;
35636;SDS011;21758;43.542;1.462;2022-07-22T09:14:57;11.70;;;5.20;;
35636;SDS011;21758;43.542;1.462;2022-07-22T09:17:34;14.57;;;5.30;;
35636;SDS011;21758;43.542;1.462;2022-07-22T09:20:02;14.02;;;5.03;;
35636;SDS011;21758;43.542;1.462;2022-07-22T09:22:31;12.07;;;5.05;;
35636;SDS011;21758;43.542;1.462;2022-07-22T09:24:58;16.40;;;5.15;;
35636;SDS011;21758;43.542;1.462;2022-07-22T09:27:41;20.50;;;5.30;;
35636;SDS011;21758;43.542;1.462;2022-07-22T09:30:07;11.98;;;4.63;;
35636;SDS011;21758;43.542;1.462;2022-07-22T09:35:07;13.57;;;5.38;;
35636;SDS011;21758;43.542;1.462;2022-07-22T09:37:33;15.15;;;5.60;;
35636;SDS011;21758;43.542;1.462;2022-07-22T09:40:12;10.18;;;5.00;;
35636;SDS011;21758;43.542;1.462;2022-07-22T09:42:46;13.50;;;5.68;;
35636;SDS011;21758;43.542;1.462;2022-07-22T09:45:16;17.77;;;5.25;;
35636;SDS011;21758;43.542;1.462;2022-07-22T09:47:43;15.40;;;5.25;;
35636;SDS011;21758;43.542;1.462;2022-07-22T09:52:40;10.43;;;5.15;;
35636;SDS011;21758;43.542;1.462;2022-07-22T09:55:07;10.00;;;4.85;;
35636;SDS011;21758;43.542;1.462;2022-07-22T09:57:34;12.35;;;5.50;;
35636;SDS011;21758;43.542;1.462;2022-07-22T09:59:59;11.18;;;4.85;;
35636;SDS011;21758;43.542;1.462;2022-07-22T10:02:25;12.38;;;5.22;;
35636;SDS011;21758;43.542;1.462;2022-07-22T10:04:52;14.77;;;5.30;;
35636;SDS011;21758;43.542;1.462;2022-07-22T10:07:20;15.27;;;5.68;;
35636;SDS011;21758;43.542;1.462;2022-07-22T10:09:48;9.43;;;4.97;;
35636;SDS011;21758;43.542;1.462;2022-07-22T10:12:15;9.73;;;4.40;;
35636;SDS011;21758;43.542;1.462;2022-07-22T10:14:41;11.60;;;5.60;;
35636;SDS011;21758;43.542;1.462;2022-07-22T10:17:07;12.48;;;4.80;;
35636;SDS011;21758;43.542;1.462;2022-07-22T10:19:33;11.57;;;5.43;;
35636;SDS011;21758;43.542;1.462;2022-07-22T10:22:00;10.13;;;5.03;;
35636;SDS011;21758;43.542;1.462;2022-07-22T10:24:25;12.43;;;4.82;;
35636;SDS011;21758;43.542;1.462;2022-07-22T10:32:39;13.30;;;5.40;;
35636;SDS011;21758;43.542;1.462;2022-07-22T10:34:43;9.63;;;4.53;;
35636;SDS011;21758;43.542;1.462;2022-07-22T10:45:40;11.65;;;4.80;;
35636;SDS011;21758;43.542;1.462;2022-07-22T10:48:11;11.80;;;4.97;;
35636;SDS011;21758;43.542;1.462;2022-07-22T10:55:36;10.52;;;4.82;;
35636;SDS011;21758;43.542;1.462;2022-07-22T11:01:00;9.85;;;4.35;;
35636;SDS011;21758;43.542;1.462;2022-07-22T11:03:28;8.35;;;4.50;;
35636;SDS011;21758;43.542;1.462;2022-07-22T11:05:54;15.18;;;4.93;;
35636;SDS011;21758;43.542;1.462;2022-07-22T11:08:21;11.07;;;4.05;;
35636;SDS011;21758;43.542;1.462;2022-07-22T11:10:48;10.57;;;4.97;;
35636;SDS011;21758;43.542;1.462;2022-07-22T11:13:30;12.43;;;4.15;;
35636;SDS011;21758;43.542;1.462;2022-07-22T11:21:23;12.90;;;4.88;;
35636;SDS011;21758;43.542;1.462;2022-07-22T11:23:54;11.02;;;5.10;;
35636;SDS011;21758;43.542;1.462;2022-07-22T11:26:42;7.93;;;4.60;;
35636;SDS011;21758;43.542;1.462;2022-07-22T11:32:05;11.60;;;4.75;;
35636;SDS011;21758;43.542;1.462;2022-07-22T11:34:34;10.45;;;4.90;;
35636;SDS011;21758;43.542;1.462;2022-07-22T11:37:07;10.57;;;4.47;;
35636;SDS011;21758;43.542;1.462;2022-07-22T11:39:34;10.95;;;4.65;;
35636;SDS011;21758;43.542;1.462;2022-07-22T11:42:00;14.30;;;4.70;;
35636;SDS011;21758;43.542;1.462;2022-07-22T11:44:27;13.95;;;4.63;;
35636;SDS011;21758;43.542;1.462;2022-07-22T11:46:55;12.18;;;4.85;;
35636;SDS011;21758;43.542;1.462;2022-07-22T11:49:24;13.02;;;4.13;;
35636;SDS011;21758;43.542;1.462;2022-07-22T11:51:54;16.33;;;4.78;;
35636;SDS011;21758;43.542;1.462;2022-07-22T11:54:20;9.38;;;4.72;;
35636;SDS011;21758;43.542;1.462;2022-07-22T11:56:46;9.18;;;4.03;;
35636;SDS011;21758;43.542;1.462;2022-07-22T11:59:13;8.63;;;4.15;;
35636;SDS011;21758;43.542;1.462;2022-07-22T12:01:40;9.50;;;4.13;;
35636;SDS011;21758;43.542;1.462;2022-07-22T12:04:06;11.38;;;4.50;;
35636;SDS011;21758;43.542;1.462;2022-07-22T12:06:35;12.80;;;4.40;;
35636;SDS011;21758;43.542;1.462;2022-07-22T12:11:34;9.20;;;4.28;;
35636;SDS011;21758;43.542;1.462;2022-07-22T12:14:06;14.00;;;3.92;;
35636;SDS011;21758;43.542;1.462;2022-07-22T12:16:32;9.13;;;3.70;;
35636;SDS011;21758;43.542;1.462;2022-07-22T12:18:59;8.43;;;4.10;;
35636;SDS011;21758;43.542;1.462;2022-07-22T12:21:32;7.38;;;3.80;;
35636;SDS011;21758;43.542;1.462;2022-07-22T12:24:14;10.05;;;4.00;;
35636;SDS011;21758;43.542;1.462;2022-07-22T12:26:41;6.70;;;3.83;;
35636;SDS011;21758;43.542;1.462;2022-07-22T12:29:13;12.57;;;3.88;;
35636;SDS011;21758;43.542;1.462;2022-07-22T12:31:52;9.88;;;4.05;;
35636;SDS011;21758;43.542;1.462;2022-07-22T12:34:32;11.43;;;3.85;;
35636;SDS011;21758;43.542;1.462;2022-07-22T12:37:00;8.90;;;3.80;;
35636;SDS011;21758;43.542;1.462;2022-07-22T12:39:36;11.18;;;4.80;;
35636;SDS011;21758;43.542;1.462;2022-07-22T12:42:02;8.45;;;3.67;;
35636;SDS011;21758;43.542;1.462;2022-07-22T12:44:27;15.00;;;4.47;;
35636;SDS011;21758;43.542;1.462;2022-07-22T12:46:54;12.55;;;4.32;;
35636;SDS011;21758;43.542;1.462;2022-07-22T12:49:24;8.07;;;3.83;;
35636;SDS011;21758;43.542;1.462;2022-07-22T12:52:09;10.10;;;4.15;;
35636;SDS011;21758;43.542;1.462;2022-07-22T12:54:39;10.77;;;3.95;;
35636;SDS011;21758;43.542;1.462;2022-07-22T12:57:06;9.63;;;4.15;;
35636;SDS011;21758;43.542;1.462;2022-07-22T12:59:33;11.88;;;4.05;;
35636;SDS011;21758;43.542;1.462;2022-07-22T13:02:00;11.98;;;4.00;;
35636;SDS011;21758;43.542;1.462;2022-07-22T13:04:26;7.28;;;3.60;;
35636;SDS011;21758;43.542;1.462;2022-07-22T13:06:52;12.80;;;3.90;;
35636;SDS011;21758;43.542;1.462;2022-07-22T13:09:18;10.52;;;4.20;;
35636;SDS011;21758;43.542;1.462;2022-07-22T13:11:44;10.48;;;4.00;;
35636;SDS011;21758;43.542;1.462;2022-07-22T13:14:10;11.10;;;4.15;;
35636;SDS011;21758;43.542;1.462;2022-07-22T13:16:37;9.65;;;4.13;;
35636;SDS011;21758;43.542;1.462;2022-07-22T13:19:03;13.82;;;4.38;;
35636;SDS011;21758;43.542;1.462;2022-07-22T13:21:29;10.00;;;4.25;;
35636;SDS011;21758;43.542;1.462;2022-07-22T13:23:54;9.45;;;3.72;;
35636;SDS011;21758;43.542;1.462;2022-07-22T13:26:20;8.52;;;3.95;;
35636;SDS011;21758;43.542;1.462;2022-07-22T13:28:46;12.45;;;4.00;;
35636;SDS011;21758;43.542;1.462;2022-07-22T13:31:12;7.93;;;3.67;;
35636;SDS011;21758;43.542;1.462;2022-07-22T13:33:38;12.82;;;4.60;;
35636;SDS011;21758;43.542;1.462;2022-07-22T13:36:10;10.68;;;4.05;;
35636;SDS011;21758;43.542;1.462;2022-07-22T13:38:36;11.15;;;4.40;;
35636;SDS011;21758;43.542;1.462;2022-07-22T13:41:01;11.43;;;3.95;;
35636;SDS011;21758;43.542;1.462;2022-07-22T13:43:27;9.13;;;4.60;;
35636;SDS011;21758;43.542;1.462;2022-07-22T13:45:53;7.20;;;3.72;;
35636;SDS011;21758;43.542;1.462;2022-07-22T13:48:20;13.10;;;4.18;;
35636;SDS011;21758;43.542;1.462;2022-07-22T13:50:46;10.95;;;4.45;;
35636;SDS011;21758;43.542;1.462;2022-07-22T13:53:12;14.20;;;4.35;;
35636;SDS011;21758;43.542;1.462;2022-07-22T13:55:38;9.85;;;4.60;;
35636;SDS011;21758;43.542;1.462;2022-07-22T13:58:04;9.75;;;4.93;;
35636;SDS011;21758;43.542;1.462;2022-07-22T14:00:30;10.60;;;4.47;;
35636;SDS011;21758;43.542;1.462;2022-07-22T14:02:56;9.18;;;4.25;;
35636;SDS011;21758;43.542;1.462;2022-07-22T14:05:22;11.77;;;4.63;;
35636;SDS011;21758;43.542;1.462;2022-07-22T14:07:48;8.93;;;5.25;;
35636;SDS011;21758;43.542;1.462;2022-07-22T14:10:14;11.23;;;5.28;;
35636;SDS011;21758;43.542;1.462;2022-07-22T14:12:40;9.73;;;4.47;;
35636;SDS011;21758;43.542;1.462;2022-07-22T14:15:07;10.80;;;5.20;;
35636;SDS011;21758;43.542;1.462;2022-07-22T14:17:33;19.83;;;5.93;;
35636;SDS011;21758;43.542;1.462;2022-07-22T14:19:59;10.23;;;4.72;;
35636;SDS011;21758;43.542;1.462;2022-07-22T14:22:25;12.13;;;5.10;;
35636;SDS011;21758;43.542;1.462;2022-07-22T14:24:51;11.88;;;5.47;;
35636;SDS011;21758;43.542;1.462;2022-07-22T14:27:17;14.48;;;4.80;;
35636;SDS011;21758;43.542;1.462;2022-07-22T14:29:43;14.63;;;4.80;;
35636;SDS011;21758;43.542;1.462;2022-07-22T14:32:09;11.57;;;4.53;;
35636;SDS011;21758;43.542;1.462;2022-07-22T14:34:34;7.20;;;4.57;;
35636;SDS011;21758;43.542;1.462;2022-07-22T14:37:00;9.80;;;4.78;;
35636;SDS011;21758;43.542;1.462;2022-07-22T14:39:26;7.15;;;4.55;;
35636;SDS011;21758;43.542;1.462;2022-07-22T14:41:51;12.43;;;4.95;;
35636;SDS011;21758;43.542;1.462;2022-07-22T14:44:17;10.18;;;4.25;;
35636;SDS011;21758;43.542;1.462;2022-07-22T14:46:43;8.52;;;4.65;;
35636;SDS011;21758;43.542;1.462;2022-07-22T14:49:09;20.02;;;5.18;;
35636;SDS011;21758;43.542;1.462;2022-07-22T14:51:34;8.57;;;5.15;;
35636;SDS011;21758;43.542;1.462;2022-07-22T14:54:00;14.30;;;4.22;;
35636;SDS011;21758;43.542;1.462;2022-07-22T14:56:26;11.10;;;5.10;;
35636;SDS011;21758;43.542;1.462;2022-07-22T14:58:52;10.90;;;5.25;;
35636;SDS011;21758;43.542;1.462;2022-07-22T15:01:18;8.27;;;4.70;;
35636;SDS011;21758;43.542;1.462;2022-07-22T15:03:43;9.55;;;4.70;;
35636;SDS011;21758;43.542;1.462;2022-07-22T15:06:09;12.45;;;5.20;;
35636;SDS011;21758;43.542;1.462;2022-07-22T15:08:35;11.65;;;5.03;;
35636;SDS011;21758;43.542;1.462;2022-07-22T15:11:02;8.13;;;4.43;;
35636;SDS011;21758;43.542;1.462;2022-07-22T15:13:28;14.15;;;4.75;;
35636;SDS011;21758;43.542;1.462;2022-07-22T15:15:54;8.00;;;4.78;;
35636;SDS011;21758;43.542;1.462;2022-07-22T17:04:48;9.40;;;4.07;;